createdAt,value
2022-08-02T00:02:55.525Z,17.39
2022-08-02T00:05:57.165Z,17.37
2022-08-02T00:08:59.069Z,17.24
2022-08-02T00:12:03.175Z,17.30
2022-08-02T00:15:06.963Z,17.28
2022-08-02T00:18:08.697Z,17.20
2022-08-02T00:21:12.820Z,17.24
2022-08-02T00:24:28.480Z,17.16
2022-08-02T00:27:31.387Z,17.22
2022-08-02T00:30:33.218Z,17.27
2022-08-02T00:34:28.016Z,17.23
2022-08-02T00:36:57.233Z,17.23
2022-08-02T00:39:58.871Z,17.17
2022-08-02T00:43:11.349Z,17.10
2022-08-02T00:46:13.885Z,17.18
2022-08-02T00:49:15.660Z,17.06
2022-08-02T00:52:18.380Z,17.14
2022-08-02T00:55:23.553Z,17.15
2022-08-02T00:58:33.544Z,17.11
2022-08-02T01:01:56.387Z,17.13
2022-08-02T01:04:59.356Z,17.09
2022-08-02T01:08:02.253Z,17.10
2022-08-02T01:11:03.946Z,17.01
2022-08-02T01:14:11.419Z,16.99
2022-08-02T01:18:02.108Z,17.08
2022-08-02T01:21:47.918Z,17.08
2022-08-02T01:25:08.033Z,17.05
2022-08-02T01:28:32.678Z,17.00
2022-08-02T01:31:57.334Z,17.04
2022-08-02T01:35:10.403Z,16.98
2022-08-02T01:38:19.491Z,16.84
2022-08-02T01:41:25.512Z,16.90
2022-08-02T01:44:30.537Z,16.91
2022-08-02T01:47:35.819Z,16.86
2022-08-02T01:50:38.514Z,16.89
2022-08-02T01:53:45.897Z,16.77
2022-08-02T01:56:50.066Z,16.79
2022-08-02T01:59:55.061Z,16.72
2022-08-02T02:02:58.908Z,16.65
2022-08-02T02:06:03.704Z,16.65
2022-08-02T02:09:06.600Z,16.59
2022-08-02T02:12:14.715Z,16.69
2022-08-02T02:15:17.528Z,16.67
2022-08-02T02:18:23.841Z,16.63
2022-08-02T02:21:25.534Z,16.61
2022-08-02T02:24:27.370Z,16.52
2022-08-02T02:27:30.583Z,16.59
2022-08-02T02:30:33.775Z,16.52
2022-08-02T02:33:51.137Z,16.51
2022-08-02T02:36:53.551Z,16.45
2022-08-02T02:39:58.070Z,16.40
2022-08-02T02:43:01.533Z,16.38
2022-08-02T02:46:05.469Z,16.29
2022-08-02T02:49:10.152Z,16.28
2022-08-02T02:52:14.667Z,16.29
2022-08-02T02:55:18.332Z,16.36
2022-08-02T02:58:20.573Z,16.23
2022-08-02T03:01:56.168Z,16.31
2022-08-02T03:04:57.222Z,16.19
2022-08-02T03:07:59.673Z,16.17
2022-08-02T03:11:01.600Z,16.12
2022-08-02T03:14:10.699Z,16.15
2022-08-02T03:17:12.431Z,16.08
2022-08-02T03:20:17.023Z,16.02
2022-08-02T03:23:18.682Z,16.08
2022-08-02T03:26:21.464Z,15.97
2022-08-02T03:29:23.253Z,15.89
2022-08-02T03:32:25.393Z,15.89
2022-08-02T03:35:27.150Z,15.83
2022-08-02T03:38:30.600Z,15.85
2022-08-02T03:41:33.563Z,15.83
2022-08-02T03:44:37.996Z,15.78
2022-08-02T03:47:40.229Z,15.73
2022-08-02T03:50:43.733Z,15.81
2022-08-02T03:53:45.846Z,15.78
2022-08-02T03:56:47.822Z,15.74
2022-08-02T03:59:49.445Z,15.64
2022-08-02T04:02:51.237Z,15.67
2022-08-02T04:06:03.285Z,15.63
2022-08-02T04:09:05.926Z,15.66
2022-08-02T04:12:07.925Z,15.54
2022-08-02T04:15:12.698Z,15.50
2022-08-02T04:18:14.748Z,15.50
2022-08-02T04:21:19.482Z,15.52
2022-08-02T04:24:25.720Z,15.49
2022-08-02T04:27:50.491Z,15.46
2022-08-02T04:30:51.347Z,15.58
2022-08-02T04:33:53.201Z,15.58
2022-08-02T04:36:55.005Z,15.60
2022-08-02T04:39:56.525Z,15.59
2022-08-02T04:42:58.071Z,15.60
2022-08-02T04:46:02.699Z,15.61
2022-08-02T04:49:07.059Z,15.63
2022-08-02T04:52:08.874Z,15.62
2022-08-02T04:55:10.720Z,15.66
2022-08-02T04:58:38.868Z,15.67
2022-08-02T05:01:39.246Z,15.73
2022-08-02T05:04:43.327Z,15.79
2022-08-02T05:07:45.060Z,15.83
2022-08-02T05:10:48.902Z,15.77
2022-08-02T05:13:58.064Z,15.92
2022-08-02T05:17:01.191Z,15.97
2022-08-02T05:20:04.024Z,16.04
2022-08-02T05:23:05.548Z,16.11
2022-08-02T05:26:07.087Z,16.19
2022-08-02T05:29:08.619Z,16.26
2022-08-02T05:32:10.344Z,16.31
2022-08-02T05:35:12.672Z,16.47
2022-08-02T05:38:14.354Z,16.54
2022-08-02T05:41:19.086Z,16.64
2022-08-02T05:44:20.829Z,16.77
2022-08-02T05:47:24.156Z,16.89
2022-08-02T05:50:25.929Z,16.98
2022-08-02T05:54:12.567Z,17.09
2022-08-02T05:57:26.583Z,17.20
2022-08-02T06:00:31.191Z,17.30
2022-08-02T06:03:39.397Z,17.38
2022-08-02T06:06:44.711Z,17.43
2022-08-02T06:09:49.250Z,17.55
2022-08-02T06:13:14.672Z,17.66
2022-08-02T06:16:16.610Z,17.74
2022-08-02T06:19:46.992Z,17.80
2022-08-02T06:22:55.718Z,17.89
2022-08-02T06:25:58.093Z,17.98
2022-08-02T06:28:59.700Z,18.12
2022-08-02T06:32:02.342Z,18.14
2022-08-02T06:35:05.591Z,18.18
2022-08-02T06:38:09.749Z,18.29
2022-08-02T06:41:14.630Z,18.42
2022-08-02T06:47:38.358Z,18.63
2022-08-02T06:50:41.948Z,18.71
2022-08-02T06:53:43.758Z,18.76
2022-08-02T06:56:46.672Z,18.82
2022-08-02T06:59:49.463Z,18.93
2022-08-02T07:02:52.651Z,18.96
2022-08-02T07:05:55.644Z,19.10
2022-08-02T07:09:19.508Z,19.14
2022-08-02T07:12:19.496Z,19.23
2022-08-02T07:15:21.545Z,19.24
2022-08-02T07:18:24.858Z,19.33
2022-08-02T07:21:57.095Z,19.34
2022-08-02T07:24:47.949Z,19.43
2022-08-02T07:27:49.490Z,19.49
2022-08-02T07:30:51.051Z,19.55
2022-08-02T07:33:55.361Z,19.56
2022-08-02T07:36:57.503Z,19.69
2022-08-02T07:40:02.881Z,19.75
2022-08-02T07:43:07.536Z,19.87
2022-08-02T07:46:09.227Z,19.88
2022-08-02T07:49:18.446Z,19.96
2022-08-02T07:52:20.759Z,20.19
2022-08-02T07:55:22.371Z,20.28
2022-08-02T07:58:23.978Z,20.36
2022-08-02T08:01:25.590Z,20.39
2022-08-02T08:04:27.371Z,20.47
2022-08-02T08:07:29.629Z,20.44
2022-08-02T08:10:32.266Z,20.58
2022-08-02T08:13:34.217Z,20.65
2022-08-02T08:16:36.041Z,20.68
2022-08-02T08:19:50.977Z,20.75
2022-08-02T08:23:00.426Z,20.85
2022-08-02T08:26:02.695Z,20.99
2022-08-02T08:29:07.377Z,21.07
2022-08-02T08:32:18.443Z,21.20
2022-08-02T08:35:23.970Z,21.23
2022-08-02T08:38:25.663Z,21.30
2022-08-02T08:41:30.426Z,21.35
2022-08-02T08:44:33.605Z,21.44
2022-08-02T08:47:38.688Z,21.57
2022-08-02T08:50:53.304Z,21.62
2022-08-02T08:54:04.433Z,21.75
2022-08-02T08:57:08.301Z,21.85
2022-08-02T09:00:16.240Z,21.97
2022-08-02T09:03:18.881Z,21.97
2022-08-02T09:06:21.361Z,22.09
2022-08-02T09:09:25.992Z,22.09
2022-08-02T09:12:27.654Z,22.13
2022-08-02T09:15:29.346Z,22.26
2022-08-02T09:18:34.689Z,22.34
2022-08-02T09:21:38.192Z,22.28
2022-08-02T09:24:45.902Z,22.44
2022-08-02T09:27:49.496Z,22.40
2022-08-02T09:30:57.277Z,22.56
2022-08-02T09:34:01.910Z,22.52
2022-08-02T09:37:03.670Z,22.64
2022-08-02T09:40:06.925Z,22.63
2022-08-02T09:43:09.776Z,22.65
2022-08-02T09:46:12.933Z,22.56
2022-08-02T09:49:16.854Z,22.63
2022-08-02T09:52:43.119Z,22.81
2022-08-02T09:55:56.538Z,22.92
2022-08-02T09:58:58.116Z,22.98
2022-08-02T10:02:17.645Z,23.11
2022-08-02T10:05:21.522Z,23.20
2022-08-02T10:08:25.523Z,23.28
2022-08-02T10:11:28.481Z,23.34
2022-08-02T10:14:30.193Z,23.38
2022-08-02T10:17:32.104Z,23.35
2022-08-02T10:20:44.546Z,23.26
2022-08-02T10:23:49.177Z,23.18
2022-08-02T10:26:51.204Z,23.11
2022-08-02T10:29:57.747Z,23.07
2022-08-02T10:33:00.711Z,23.06
2022-08-02T10:36:06.877Z,23.06
2022-08-02T10:39:10.487Z,23.14
2022-08-02T10:42:33.671Z,23.22
2022-08-02T10:45:35.502Z,23.30
2022-08-02T10:49:37.483Z,23.53
2022-08-02T10:52:32.293Z,23.61
2022-08-02T10:55:45.274Z,23.70
2022-08-02T10:58:46.876Z,23.85
2022-08-02T11:01:48.730Z,24.03
2022-08-02T11:04:50.197Z,24.15
2022-08-02T11:07:51.696Z,24.18
2022-08-02T11:11:01.211Z,24.33
2022-08-02T11:14:07.416Z,24.51
2022-08-02T11:17:19.578Z,24.67
2022-08-02T11:20:22.848Z,24.79
2022-08-02T11:23:44.378Z,24.97
2022-08-02T11:26:47.792Z,25.04
2022-08-02T11:29:50.108Z,25.15
2022-08-02T11:33:00.949Z,25.24
2022-08-02T11:36:05.449Z,25.42
2022-08-02T11:39:12.486Z,25.57
2022-08-02T11:42:17.322Z,25.72
2022-08-02T11:45:29.321Z,25.84
2022-08-02T11:48:36.636Z,25.94
2022-08-02T11:51:38.703Z,26.00
2022-08-02T11:54:44.130Z,26.18
2022-08-02T11:58:02.885Z,26.27
2022-08-02T12:01:07.091Z,26.33
2022-08-02T12:04:09.097Z,26.33
2022-08-02T12:07:10.975Z,26.43
2022-08-02T12:10:18.786Z,26.52
2022-08-02T12:13:20.984Z,26.58
2022-08-02T12:16:42.606Z,26.70
2022-08-02T12:19:44.587Z,26.86
2022-08-02T12:22:46.205Z,26.86
2022-08-02T12:26:06.481Z,26.88
2022-08-02T12:29:08.285Z,26.86
2022-08-02T12:32:23.987Z,26.78
2022-08-02T12:35:30.908Z,26.66
2022-08-02T12:38:32.454Z,26.65
2022-08-02T12:41:34.390Z,26.63
2022-08-02T12:44:39.055Z,26.68
2022-08-02T12:47:49.600Z,26.76
2022-08-02T12:50:51.288Z,26.87
2022-08-02T12:53:58.861Z,27.07
2022-08-02T12:57:16.464Z,27.35
2022-08-02T13:00:28.799Z,27.55
2022-08-02T13:04:10.056Z,27.69
2022-08-02T13:06:52.316Z,27.83
2022-08-02T13:10:00.355Z,28.05
2022-08-02T13:13:05.370Z,28.26
2022-08-02T13:16:08.572Z,28.49
2022-08-02T13:19:10.546Z,28.61
2022-08-02T13:22:12.242Z,28.68
2022-08-02T13:25:13.985Z,28.77
2022-08-02T13:28:15.554Z,28.78
2022-08-02T13:31:36.043Z,28.84
2022-08-02T13:34:38.386Z,29.03
2022-08-02T13:37:41.922Z,28.93
2022-08-02T13:41:04.794Z,28.85
2022-08-02T13:44:10.290Z,28.78
2022-08-02T13:47:12.850Z,28.93
2022-08-02T13:50:14.464Z,29.22
2022-08-02T13:53:16.222Z,29.55
2022-08-02T13:56:17.969Z,29.74
2022-08-02T13:59:55.131Z,29.76
2022-08-02T14:02:41.146Z,29.68
2022-08-02T14:05:47.313Z,29.69
2022-08-02T14:08:50.381Z,29.89
2022-08-02T14:11:52.106Z,30.05
2022-08-02T14:14:53.626Z,30.11
2022-08-02T14:17:55.175Z,30.18
2022-08-02T14:20:56.766Z,30.38
2022-08-02T14:23:58.974Z,30.67
2022-08-02T14:27:01.756Z,30.88
2022-08-02T14:30:04.118Z,30.92
2022-08-02T14:33:05.669Z,30.86
2022-08-02T14:36:07.361Z,30.85
2022-08-02T14:39:09.534Z,31.07
2022-08-02T14:42:11.454Z,31.27
2022-08-02T14:45:13.336Z,31.34
2022-08-02T14:48:14.836Z,31.47
2022-08-02T14:51:16.939Z,31.35
2022-08-02T14:54:18.566Z,31.19
2022-08-02T14:57:20.509Z,31.17
2022-08-02T15:00:22.100Z,31.31
2022-08-02T15:03:23.757Z,31.51
2022-08-02T15:06:28.951Z,31.59
2022-08-02T15:09:31.017Z,31.82
2022-08-02T15:12:32.636Z,31.99
2022-08-02T15:15:42.190Z,32.13
2022-08-02T15:18:45.687Z,32.33
2022-08-02T15:21:52.667Z,32.41
2022-08-02T15:25:00.136Z,32.31
2022-08-02T15:28:01.858Z,32.34
2022-08-02T15:31:03.739Z,32.26
2022-08-02T15:34:06.141Z,32.20
2022-08-02T15:37:08.207Z,32.32
2022-08-02T15:40:10.546Z,32.47
2022-08-02T15:43:12.190Z,32.55
2022-08-02T15:46:14.011Z,32.72
2022-08-02T15:49:15.664Z,32.85
2022-08-02T15:52:17.402Z,32.91
2022-08-02T15:55:19.652Z,32.86
2022-08-02T15:58:22.455Z,32.87
2022-08-02T16:01:32.195Z,32.96
2022-08-02T16:04:40.298Z,33.02
2022-08-02T16:07:41.947Z,32.95
2022-08-02T16:10:44.120Z,32.67
2022-08-02T16:13:55.164Z,32.44
2022-08-02T16:16:57.235Z,32.23
2022-08-02T16:19:59.064Z,32.03
2022-08-02T16:23:00.765Z,31.78
2022-08-02T16:26:06.179Z,31.77
2022-08-02T16:29:07.957Z,31.58
2022-08-02T16:32:09.978Z,31.39
2022-08-02T16:35:12.463Z,31.25
2022-08-02T16:38:14.135Z,30.94
2022-08-02T16:41:16.367Z,30.72
2022-08-02T16:44:18.554Z,30.53
2022-08-02T16:47:43.232Z,30.31
2022-08-02T16:50:53.321Z,30.16
2022-08-02T16:53:59.438Z,29.94
2022-08-02T16:57:04.904Z,29.78
2022-08-02T17:00:10.033Z,29.65
2022-08-02T17:03:13.057Z,29.50
2022-08-02T17:06:16.167Z,29.34
2022-08-02T17:10:03.530Z,29.10
2022-08-02T17:12:40.492Z,28.89
2022-08-02T17:16:07.678Z,28.72
2022-08-02T17:19:04.292Z,28.57
2022-08-02T17:22:06.003Z,28.46
2022-08-02T17:25:14.365Z,28.32
2022-08-02T17:28:16.347Z,28.19
2022-08-02T17:31:18.078Z,28.04
2022-08-02T17:34:31.601Z,27.88
2022-08-02T17:37:33.549Z,27.82
2022-08-02T17:40:36.810Z,27.79
2022-08-02T17:43:41.164Z,27.67
2022-08-02T17:46:42.885Z,27.58
2022-08-02T17:49:48.624Z,27.46
2022-08-02T17:52:53.515Z,27.36
2022-08-02T17:55:55.208Z,27.32
2022-08-02T17:59:10.001Z,27.18
2022-08-02T18:02:14.442Z,27.08
2022-08-02T18:05:16.911Z,27.00
2022-08-02T18:08:21.607Z,26.92
2022-08-02T18:11:52.576Z,26.76
2022-08-02T18:14:49.006Z,26.67
2022-08-02T18:17:51.230Z,26.52
2022-08-02T18:20:56.401Z,26.38
2022-08-02T18:23:59.208Z,26.22
2022-08-02T18:27:02.072Z,26.08
2022-08-02T18:30:04.979Z,25.92
2022-08-02T18:33:58.317Z,25.77
2022-08-02T18:36:28.176Z,25.60
2022-08-02T18:39:33.099Z,25.44
2022-08-02T18:42:34.689Z,25.28
2022-08-02T18:46:02.323Z,25.11
2022-08-02T18:48:58.151Z,24.94
2022-08-02T18:52:08.854Z,24.78
2022-08-02T18:55:17.371Z,24.63
2022-08-02T18:58:32.976Z,24.47
2022-08-02T19:01:39.464Z,24.30
2022-08-02T19:04:50.314Z,24.18
2022-08-02T19:07:54.332Z,24.04
2022-08-02T19:10:57.318Z,23.89
2022-08-02T19:13:58.988Z,23.70
2022-08-02T19:17:15.764Z,23.60
2022-08-02T19:20:22.131Z,23.45
2022-08-02T19:23:25.340Z,23.35
2022-08-02T19:26:27.221Z,23.25
2022-08-02T19:29:48.167Z,23.12
2022-08-02T19:32:58.713Z,22.98
2022-08-02T19:36:03.749Z,22.84
2022-08-02T19:39:06.041Z,22.71
2022-08-02T19:42:08.047Z,22.59
2022-08-02T19:45:13.104Z,22.48
2022-08-02T19:48:15.602Z,22.38
2022-08-02T19:51:54.855Z,22.26
2022-08-02T19:58:00.864Z,22.11
2022-08-02T20:01:03.752Z,21.99
2022-08-02T20:04:07.419Z,21.93
2022-08-02T20:07:15.719Z,21.85
2022-08-02T20:10:27.241Z,21.77
2022-08-02T20:13:30.660Z,21.69
2022-08-02T20:16:48.484Z,21.63
2022-08-02T20:19:52.280Z,21.58
2022-08-02T20:23:33.742Z,21.50
2022-08-02T20:26:35.350Z,21.42
2022-08-02T20:29:44.907Z,21.33
2022-08-02T20:32:52.677Z,21.27
2022-08-02T20:35:54.944Z,21.21
2022-08-02T20:38:56.973Z,21.15
2022-08-02T20:41:59.581Z,21.09
2022-08-02T20:45:04.630Z,21.01
2022-08-02T20:48:06.950Z,20.95
2022-08-02T20:51:12.018Z,20.90
2022-08-02T20:54:13.751Z,20.84
2022-08-02T20:57:48.390Z,20.77
2022-08-02T21:00:44.409Z,20.70
2022-08-02T21:03:45.928Z,20.64
2022-08-02T21:07:00.039Z,20.57
2022-08-02T21:10:02.169Z,20.51
2022-08-02T21:13:18.918Z,20.47
2022-08-02T21:16:25.126Z,20.40
2022-08-02T21:19:26.920Z,20.33
2022-08-02T21:22:28.428Z,20.28
2022-08-02T21:25:51.141Z,20.22
2022-08-02T21:28:52.801Z,20.13
2022-08-02T21:31:54.951Z,20.05
2022-08-02T21:34:56.765Z,19.98
2022-08-02T21:37:58.473Z,19.88
2022-08-02T21:41:00.106Z,19.83
2022-08-02T21:44:06.192Z,19.78
2022-08-02T21:47:09.178Z,19.74
2022-08-02T21:50:15.972Z,19.70
2022-08-02T21:53:18.952Z,19.64
2022-08-02T21:56:39.529Z,19.57
2022-08-02T21:59:41.740Z,19.50
2022-08-02T22:02:47.012Z,19.46
2022-08-02T22:05:48.592Z,19.38
2022-08-02T22:08:51.498Z,19.33
2022-08-02T22:11:53.239Z,19.31
2022-08-02T22:14:56.305Z,19.24
2022-08-02T22:18:00.102Z,19.18
2022-08-02T22:21:01.990Z,19.14
2022-08-02T22:24:19.609Z,19.07
2022-08-02T22:28:11.809Z,19.03
2022-08-02T22:30:54.030Z,18.98
2022-08-02T22:34:26.751Z,18.94
2022-08-02T22:38:15.541Z,18.90
2022-08-02T22:40:51.529Z,18.83
2022-08-02T22:43:53.052Z,18.78
2022-08-02T22:46:54.589Z,18.75
2022-08-02T22:49:59.528Z,18.73
2022-08-02T22:53:03.128Z,18.67
2022-08-02T22:56:05.381Z,18.62
2022-08-02T22:59:05.412Z,22.17
2022-08-02T23:02:17.841Z,18.52
2022-08-02T23:05:20.761Z,18.49
2022-08-02T23:08:22.761Z,18.44
2022-08-02T23:11:24.368Z,18.40
2022-08-02T23:14:25.918Z,18.38
2022-08-02T23:17:46.073Z,18.34
2022-08-02T23:20:48.781Z,18.33
2022-08-02T23:23:50.463Z,18.30
2022-08-02T23:26:52.022Z,18.26
2022-08-02T23:29:53.538Z,18.20
2022-08-02T23:32:55.032Z,18.17
2022-08-02T23:35:56.541Z,18.12
2022-08-02T23:38:59.815Z,18.09
2022-08-02T23:42:02.147Z,18.06
2022-08-02T23:45:03.916Z,18.02
2022-08-02T23:48:05.531Z,18.00
2022-08-02T23:51:07.226Z,17.95
2022-08-02T23:54:09.749Z,17.93
2022-08-02T23:57:20.976Z,17.87
